AirNav   Everest Fuels
 
 678 users online  

71TS Fairmount Airport
Fairmount, Texas, USA

GOING TO FAIRMOUNT?


FAA INFORMATION EFFECTIVE 10 SEPTEMBER 2020

Location

FAA Identifier: 71TS
Lat/Long: 31-13-07.1600N 093-42-06.8300W
31-13.119333N 093-42.113833W
31.2186556,-93.7018972
(estimated)
Elevation: 211 ft. / 64 m (estimated)
From city: 2 miles NE of FAIRMOUNT, TX
Time zone: UTC -5 (UTC -6 during Standard Time)
Zip code: 75948

Airport Operations

Airport use: Private use. Permission required prior to landing
Activation date: 04/2017
Control tower: no
ARTCC: HOUSTON CENTER
FSS: FORT WORTH FLIGHT SERVICE STATION
Attendance: 
Wind indicator: lighted
Segmented circle: yes
Lights: SS-SR
Beacon: white-green (lighted land airport)

Nearby radio navigation aids

VOR radial/distance  VOR name  Freq  Var
FXUr283/(25.6)POLK VOR108.4002E

 
NDB name  Hdg/Dist  Freq  Var  ID
GATOR291/28.935902EGUV --. ..- ...-
DE RIDDER322/33.838504EDXB -.. -..- -...

Airport Services

Fuel available: 100LL MOGAS

Runway Information

Runway 16/34

Dimensions: 3153 x 50 ft. / 961 x 15 m
Surface: asphalt/concrete
RUNWAY 16  RUNWAY 34
Traffic pattern: leftleft

Airport Ownership and Management from official FAA records

Ownership: Privately-owned
Owner: FAIRMOUNT AIRPORT, LLC.
623 RAMSEY DRIVE
HEMPHILL, TX 75948
Phone 409-579-3514
Manager: CHARLES K. VICTORY
530 ARNOLD PLACE
HEMPHILL, TX 75948
Phone 408-836-5122

Airport Operational Statistics

Aircraft based on the field: 8
Single engine airplanes: 8
    

Additional Remarks

FOR CD CTC POLK APCH AT 337-531-2352.

Instrument Procedures

There are no published instrument procedures at 71TS.

Some nearby airports with instrument procedures:

L39 - Leesville Airport (19 nm E)
3R4 - Hart Airport (22 nm NE)
KJAS - Jasper County Airport-Bell Field (26 nm SW)
KPOE - Polk Army Airfield (28 nm E)
KDRI - Beauregard Regional Airport (30 nm SE)
 
Loc | Ops | Rwys | IFR | FBO | Links
Com | Nav | Svcs | Stats | Notes
Aerial photo
No photo
 
Airport distance calculator
Flying to Fairmount Airport? Find the distance to fly.

From to 71TS

Sunrise and sunset
Times for 21-Sep-2020
 Local
(UTC-5)
 Zulu
(UTC)
Morning civil twilight06:4011:40
Sunrise07:0412:04
Sunset19:1100:11
Evening civil twilight19:3500:35

Current date and time
Zulu (UTC)  22-Sep-2020 04:38:04
Local (UTC-5)  21-Sep-2020 23:38:04
 
METAR
KJAS 
26nm SW 
220415Z AUTO 07007KT 3SM -RA OVC007 22/21 A3003 RMK AO2 P0008 T02190213
KAQV 
30nm NE 
220357Z AUTO VRB04KT 6SM BR OVC006 21/19 A3005 RMK AO2 RAB0258E13 CIG 005V009 SLP175 P0000 T02060194
KDRI 
30nm SE 
220415Z AUTO 07007KT 10SM RA OVC009 21/20 A3005 RMK AO2 T02090198
KPOE 
37nm E 
220358Z AUTO 08007KT 10SM OVC009 21/20 A3007 RMK AO2 SLP183 T02080198
KBKB 
42nm E 
220354Z AUTO VRB04KT 10SM OVC011 21/19 A3004 RMK AO2 RAE18 SLP198 P0001 T02110194
KIER 
44nm NE 
220415Z AUTO 09009KT 7SM OVC008 20/20 A3009 RMK AO2 T02030196
K5R8 
48nm S 
220415Z AUTO 08005KT 10SM OVC008 21/20 A3001 RMK AO2 T02100201
TAF
KPOE 
37nm E 
220230Z 2202/2306 05009KT 9999 OVC009 510203 QNH2999INS BECMG 2207/2208 08012KT 9999 BKN007 QNH2993INS BECMG 2215/2216 07012KT 8000 -SHRA OVC005 QNH2988INS BECMG 2300/2301 07006KT 9999 NSW OVC010 QNH2989INS TX22/2219Z TN19/2210Z
NOTAMs
Click for the latest NOTAMs
NOTAMs are issued by the DoD/FAA and will open in a separate window not controlled by AirNav.

 

 
 

Would you like to see your business listed on this page?

 If your business provides an interesting product or service to pilots, flight crews, aircraft, or users of the Fairmount Airport, you should consider listing it here.  To start the listing process, click on the button below
 
Add a business
 

Other Pages about Fairmount Airport

Update a link
 
Copyright © AirNav, LLC. All rights reserved. Privacy Policy  Contact